Time;durP1;ratioP1;P1;durP2;ratioP2;P2;SDS_P1;SDS_P2;PMS_P1;PMS_P2;Temp;Humidity;BMP_temperature;BMP_pressure;BME280_temperature;BME280_humidity;BME280_pressure;Samples;Min_cycle;Max_cycle;Signal;HPM_P1;HPM_P2
2022/03/21 00:01:56;;;;;;;30.50;18.23;;;;;;;7.67;51.73;101805.81;4950658;29;20046;-93
2022/03/21 00:04:26;;;;;;;28.67;18.60;;;;;;;7.40;51.83;101775.38;4954914;28;20047;-92
2022/03/21 00:06:53;;;;;;;27.00;17.90;;;;;;;7.32;52.07;101776.34;4952280;29;20427;-93
2022/03/21 00:09:25;;;;;;;27.50;18.05;;;;;;;7.43;52.63;101797.31;4956152;29;20079;-91
2022/03/21 00:11:53;;;;;;;27.02;18.38;;;;;;;7.34;53.27;101801.81;4948417;29;20058;-92
2022/03/21 00:14:20;;;;;;;26.90;18.67;;;;;;;7.47;53.13;101828.00;4955787;29;20094;-92
2022/03/21 00:16:49;;;;;;;27.58;18.52;;;;;;;7.18;52.87;101784.41;4953095;29;20051;-91
2022/03/21 00:19:16;;;;;;;27.02;17.52;;;;;;;7.26;53.12;101803.63;4954030;29;20387;-92
2022/03/21 00:21:43;;;;;;;28.20;17.50;;;;;;;7.27;52.32;101821.19;4946376;29;20074;-95
2022/03/21 00:24:11;;;;;;;24.60;17.33;;;;;;;7.39;52.11;101839.53;4947105;29;20057;-92
2022/03/21 00:26:40;;;;;;;26.40;17.27;;;;;;;7.30;52.42;101821.16;4949664;29;20067;-91
2022/03/21 00:29:08;;;;;;;28.25;17.85;;;;;;;7.47;52.09;101838.56;4948745;29;20067;-93
2022/03/21 00:31:37;;;;;;;27.77;17.45;;;;;;;7.16;52.57;101794.09;4944326;29;20040;-92
2022/03/21 00:34:05;;;;;;;25.40;16.98;;;;;;;7.19;52.54;101801.09;4950481;29;20044;-93
2022/03/21 00:36:35;;;;;;;26.77;17.17;;;;;;;7.12;52.66;101797.66;4951505;29;20423;-92
2022/03/21 00:39:14;;;;;;;24.75;16.90;;;;;;;7.07;52.51;101796.84;4953786;28;20054;-93
2022/03/21 00:41:41;;;;;;;27.33;17.33;;;;;;;7.14;52.42;101814.31;4947943;29;20051;-92
2022/03/21 00:44:12;;;;;;;27.17;17.88;;;;;;;7.14;52.43;101822.22;4951808;29;20099;-92
2022/03/21 00:46:39;;;;;;;26.98;18.58;;;;;;;7.20;52.81;101824.81;4955211;29;20071;-90
2022/03/21 00:49:11;;;;;;;25.58;16.95;;;;;;;7.01;52.97;101799.53;4938331;29;20074;-92
2022/03/21 00:51:39;;;;;;;25.80;17.52;;;;;;;7.05;53.73;101819.69;4947923;29;20051;-93
2022/03/21 00:54:07;;;;;;;27.20;18.38;;;;;;;6.98;53.90;101817.97;4949172;29;20055;-93
2022/03/21 00:56:34;;;;;;;26.50;17.27;;;;;;;7.04;54.15;101839.00;4951352;29;20744;-90
2022/03/21 00:59:03;;;;;;;27.63;18.10;;;;;;;6.70;54.47;101780.50;4950395;29;20055;-91
2022/03/21 01:01:30;;;;;;;24.98;16.52;;;;;;;6.97;54.15;101835.53;4950181;29;20114;-92
2022/03/21 01:03:58;;;;;;;24.85;17.15;;;;;;;6.84;53.20;101810.22;4948311;29;20051;-91
2022/03/21 01:06:25;;;;;;;21.38;15.02;;;;;;;6.85;53.18;101798.81;4949108;29;20058;-90
2022/03/21 01:08:53;;;;;;;26.92;16.48;;;;;;;6.84;53.02;101794.41;4947888;29;20047;-90
2022/03/21 01:11:24;;;;;;;24.98;16.35;;;;;;;6.95;52.36;101804.84;4947976;29;20082;-92
2022/03/21 01:13:51;;;;;;;24.65;16.33;;;;;;;6.89;53.09;101811.06;4948277;28;20102;-92
2022/03/21 01:16:20;;;;;;;25.00;16.38;;;;;;;6.71;52.08;101776.13;4950800;29;20074;-92
2022/03/21 01:18:47;;;;;;;22.17;16.27;;;;;;;6.92;51.74;101791.72;4955776;29;20051;-91
2022/03/21 01:21:14;;;;;;;24.05;15.80;;;;;;;7.11;51.38;101809.06;4935209;29;20123;-91
2022/03/21 01:23:41;;;;;;;22.50;15.43;;;;;;;6.82;51.14;101755.81;4931045;29;20055;-93
2022/03/21 01:26:08;;;;;;;27.83;16.30;;;;;;;6.96;49.98;101765.31;4954283;29;20046;-92
2022/03/21 01:28:36;;;;;;;21.75;14.90;;;;;;;7.25;48.47;101780.81;4953003;29;20059;-92
2022/03/21 01:31:03;;;;;;;23.10;14.50;;;;;;;7.57;47.89;101817.34;4950893;29;20487;-90
2022/03/21 01:33:35;;;;;;;20.17;14.65;;;;;;;7.51;47.60;101784.94;4943595;29;20525;-90
2022/03/21 01:36:04;;;;;;;21.00;14.63;;;;;;;7.66;47.25;101809.34;4930412;29;21460;-93
2022/03/21 01:38:32;;;;;;;22.13;14.80;;;;;;;7.60;46.80;101783.03;4946993;29;20048;-90
2022/03/21 01:40:59;;;;;;;22.80;15.43;;;;;;;7.45;46.83;101758.63;4947100;29;20052;-91
2022/03/21 01:43:26;;;;;;;23.63;15.15;;;;;;;7.63;46.44;101776.84;4946811;29;20119;-91
2022/03/21 01:45:53;;;;;;;22.60;14.65;;;;;;;7.60;46.54;101784.78;4951447;29;20467;-93
2022/03/21 01:48:20;;;;;;;23.60;15.27;;;;;;;7.70;45.78;101800.50;4951271;29;20451;-91
2022/03/21 01:50:48;;;;;;;22.92;14.48;;;;;;;7.50;46.11;101756.81;4936959;29;20074;-91
2022/03/21 01:56:01;;;;;;;22.02;14.07;;;;;;;7.71;46.15;101817.19;4947129;29;20051;-92
2022/03/21 01:58:30;;;;;;;22.70;14.45;;;;;;;7.58;46.10;101791.84;4952271;29;20055;-90
2022/03/21 02:00:57;;;;;;;20.75;14.68;;;;;;;7.44;45.75;101764.78;4948942;29;20055;-91
2022/03/21 02:03:27;;;;;;;22.25;14.52;;;;;;;7.49;45.48;101760.34;4944266;29;20813;-90
2022/03/21 02:05:56;;;;;;;26.75;14.15;;;;;;;7.52;45.48;101766.47;4948564;29;20137;-91
2022/03/21 02:08:25;;;;;;;19.42;13.13;;;;;;;7.72;45.37;101798.69;4949328;29;20053;-91
2022/03/21 02:10:52;;;;;;;21.10;14.18;;;;;;;7.72;45.38;101792.53;4951239;29;20062;-90
2022/03/21 02:13:21;;;;;;;21.40;14.10;;;;;;;7.71;45.47;101796.09;4953306;29;20055;-90
2022/03/21 02:15:48;;;;;;;21.70;14.20;;;;;;;7.72;45.13;101790.78;4936089;29;20051;-91
2022/03/21 02:18:17;;;;;;;21.20;14.13;;;;;;;7.71;45.10;101796.09;4949182;29;20058;-93
2022/03/21 02:20:45;;;;;;;21.52;14.73;;;;;;;7.72;45.39;101811.00;4952172;29;20138;-90
2022/03/21 02:23:47;;;;;;;21.63;14.20;;;;;;;7.80;45.41;101817.06;4943704;29;20450;-91
2022/03/21 02:26:17;;;;;;;21.45;14.52;;;;;;;7.68;45.39;101806.69;4951456;28;20058;-90
2022/03/21 02:28:48;;;;;;;20.73;14.50;;;;;;;7.56;46.15;101793.63;4953492;29;20047;-90
2022/03/21 02:31:16;;;;;;;21.00;14.85;;;;;;;7.40;46.08;101785.03;4948731;29;20047;-91
2022/03/21 02:33:43;;;;;;;20.33;13.95;;;;;;;7.25;46.33;101777.31;4944795;29;20047;-91
2022/03/21 02:36:14;;;;;;;21.45;15.27;;;;;;;7.33;47.51;101818.50;4949412;29;20055;-90
2022/03/21 02:38:42;;;;;;;23.95;15.77;;;;;;;7.13;48.67;101817.84;4935703;29;20106;-91
2022/03/21 02:41:13;;;;;;;28.27;17.77;;;;;;;7.08;50.49;101842.50;4946898;29;20057;-90
2022/03/21 02:43:53;;;;;;;25.92;16.92;;;;;;;6.79;51.58;101830.44;4944641;29;20134;-90
2022/03/21 02:46:23;;;;;;;27.25;17.17;;;;;;;6.50;52.46;101825.41;4947478;29;20089;-90
2022/03/21 02:48:54;;;;;;;27.00;17.80;;;;;;;6.19;53.23;101798.44;4934411;29;20206;-91
2022/03/21 02:51:31;;;;;;;28.85;17.83;;;;;;;6.28;53.25;101829.09;4950450;29;20427;-91
2022/03/21 02:53:59;;;;;;;24.58;17.00;;;;;;;6.08;54.30;101816.06;4944482;29;20147;-91
2022/03/21 02:56:26;;;;;;;22.77;17.08;;;;;;;6.07;53.79;101830.09;4953639;29;20055;-90
2022/03/21 02:58:54;;;;;;;25.38;16.70;;;;;;;5.91;54.90;101815.28;4926232;29;20142;-90
2022/03/21 03:01:22;;;;;;;26.42;16.88;;;;;;;5.91;55.42;101823.16;4945901;29;20776;-90
2022/03/21 03:03:51;;;;;;;26.52;16.58;;;;;;;5.71;54.40;101794.31;4937400;29;20143;-91
2022/03/21 03:06:18;;;;;;;23.35;16.98;;;;;;;5.73;54.19;101800.44;4953201;29;20103;-90
2022/03/21 03:08:46;;;;;;;24.20;15.80;;;;;;;5.81;55.04;101824.94;4948988;29;20051;-90
2022/03/21 03:11:14;;;;;;;23.10;16.45;;;;;;;5.77;54.36;101823.19;4953264;29;20063;-90
2022/03/21 03:13:44;;;;;;;25.92;16.95;;;;;;;5.85;54.54;101834.53;4945404;29;20075;-91
2022/03/21 03:16:13;;;;;;;26.35;16.05;;;;;;;5.79;54.36;101817.94;4936747;29;20063;-90
2022/03/21 03:18:44;;;;;;;23.02;15.55;;;;;;;5.83;53.91;101835.41;4948806;29;20086;-90
2022/03/21 03:21:15;;;;;;;26.05;16.10;;;;;;;5.63;54.05;101807.50;4918905;29;20655;-91
2022/03/21 03:23:43;;;;;;;25.33;16.02;;;;;;;5.72;54.30;101826.72;4950162;29;20043;-92
2022/03/21 03:26:10;;;;;;;26.15;16.90;;;;;;;5.72;54.59;101831.97;4951631;29;20063;-90
2022/03/21 03:28:40;;;;;;;24.48;15.95;;;;;;;5.74;54.96;101846.88;4947534;29;20047;-92
2022/03/21 03:31:13;;;;;;;;;;;;;;;5.83;55.55;101870.47;4951661;29;20082;-92
2022/03/21 03:33:45;;;;;;;24.00;15.57;;;;;;;5.54;54.92;101823.28;4941363;29;19922;-91
2022/03/21 03:36:15;;;;;;;23.75;15.20;;;;;;;5.71;54.35;101854.75;4948763;29;20070;-92
2022/03/21 03:38:44;;;;;;;22.38;15.23;;;;;;;5.46;54.99;101818.94;4953906;28;20048;-95
2022/03/21 03:41:15;;;;;;;23.45;15.68;;;;;;;5.68;54.15;101867.91;4955524;29;20055;-93
2022/03/21 03:43:43;;;;;;;24.85;15.45;;;;;;;5.59;54.22;101852.19;4959872;28;20047;-94
2022/03/21 03:46:12;;;;;;;26.50;15.65;;;;;;;5.69;54.01;101871.41;4967769;29;20110;-93
2022/03/21 03:48:41;;;;;;;23.38;14.98;;;;;;;5.76;54.71;101870.50;4968256;29;20054;-93
2022/03/21 03:51:08;;;;;;;21.25;14.77;;;;;;;5.71;54.45;101888.03;4944475;29;20062;-93
2022/03/21 03:53:35;;;;;;;23.13;16.15;;;;;;;5.48;54.86;101854.84;4949545;29;20023;-93
2022/03/21 03:56:02;;;;;;;25.55;15.82;;;;;;;5.54;55.06;101853.94;4962604;29;20148;-91
2022/03/21 03:58:29;;;;;;;23.67;15.68;;;;;;;5.51;54.77;101865.31;4963617;29;20059;-90
2022/03/21 04:00:57;;;;;;;22.80;15.38;;;;;;;5.50;54.90;101867.97;4938629;29;20115;-92
2022/03/21 04:03:45;;;;;;;21.73;15.23;;;;;;;5.54;54.64;101874.97;4937185;29;20047;-91
2022/03/21 04:06:14;;;;;;;22.77;15.18;;;;;;;5.66;54.20;101884.59;4940612;29;20052;-90
2022/03/21 04:08:42;;;;;;;20.95;14.90;;;;;;;5.53;53.70;101865.31;4948246;29;20086;-91
2022/03/21 04:11:10;;;;;;;19.65;14.23;;;;;;;5.64;53.23;101881.94;4951813;29;20071;-90
2022/03/21 04:13:39;;;;;;;23.73;14.82;;;;;;;5.53;52.74;101868.81;4948872;29;20233;-90
2022/03/21 04:16:07;;;;;;;23.70;14.55;;;;;;;5.46;53.12;101850.47;4950325;29;20118;-92
2022/03/21 04:18:35;;;;;;;23.35;14.75;;;;;;;5.50;52.57;101868.84;4952449;29;20055;-92
2022/03/21 04:21:22;;;;;;;21.15;14.45;;;;;;;5.49;52.33;101869.75;4949325;29;20057;-91
2022/03/21 04:23:51;;;;;;;25.55;15.55;;;;;;;5.55;53.13;101879.34;4946730;29;20048;-90
2022/03/21 04:26:19;;;;;;;23.73;14.55;;;;;;;5.42;53.03;101864.47;4948243;29;20067;-90
2022/03/21 04:28:49;;;;;;;23.20;15.82;;;;;;;5.31;53.98;101859.28;4944462;29;20495;-90
2022/03/21 04:31:17;;;;;;;22.98;15.48;;;;;;;5.38;54.05;101883.75;4955013;29;20059;-90
2022/03/21 04:33:45;;;;;;;21.42;14.20;;;;;;;5.33;53.87;101896.91;4949667;29;20062;-91
2022/03/21 04:36:13;;;;;;;26.60;15.98;;;;;;;5.12;54.33;101868.91;4945866;29;20047;-91
2022/03/21 04:38:41;;;;;;;22.98;15.40;;;;;;;5.17;54.47;101874.19;4944644;29;20048;-90
2022/03/21 04:41:10;;;;;;;23.42;15.27;;;;;;;5.16;54.12;101862.78;4945936;29;20106;-91
2022/03/21 04:43:37;;;;;;;21.25;14.70;;;;;;;5.32;53.96;101907.41;4927485;29;20051;-92
2022/03/21 04:46:05;;;;;;;24.77;14.93;;;;;;;5.21;54.43;101892.53;4952207;29;20095;-91
2022/03/21 04:48:32;;;;;;;23.50;15.20;;;;;;;5.23;54.27;101898.66;4950468;28;20150;-92
2022/03/21 04:50:59;;;;;;;24.48;14.25;;;;;;;4.97;54.57;101868.06;4945982;29;20058;-91
2022/03/21 04:53:28;;;;;;;23.70;15.23;;;;;;;5.08;54.58;101898.66;4944957;29;20074;-92
2022/03/21 04:55:56;;;;;;;23.20;15.03;;;;;;;4.99;55.48;101896.06;4936375;29;20088;-92
2022/03/21 04:58:23;;;;;;;20.75;14.15;;;;;;;4.92;55.10;101889.06;4950366;29;20054;-92
2022/03/21 05:00:54;;;;;;;22.38;15.00;;;;;;;4.93;54.72;101896.06;4947640;29;20412;-92
2022/03/21 05:03:23;;;;;;;22.60;14.35;;;;;;;5.13;54.81;101938.94;4945021;29;20077;-91
2022/03/21 05:05:50;;;;;;;21.00;13.80;;;;;;;4.91;55.34;101903.03;4932459;29;20134;-91
2022/03/21 05:08:21;;;;;;;21.17;14.80;;;;;;;5.02;54.62;101913.56;4949102;29;20052;-92
2022/03/21 05:10:49;;;;;;;24.33;14.20;;;;;;;4.95;54.42;101899.56;4931412;29;20415;-91
2022/03/21 05:13:16;;;;;;;22.08;13.95;;;;;;;5.02;54.21;101909.19;4946153;29;20063;-92
2022/03/21 05:15:43;;;;;;;21.20;13.93;;;;;;;5.03;53.95;101905.69;4936302;29;20066;-92
2022/03/21 05:18:10;;;;;;;19.58;13.60;;;;;;;4.89;53.51;101875.91;4953266;29;20135;-90
2022/03/21 05:20:38;;;;;;;23.50;14.10;;;;;;;5.14;53.51;101913.56;4946463;29;20076;-91
2022/03/21 05:31:27;;;;;;;19.45;13.38;;;;;;;5.22;53.12;101938.06;4950468;29;21209;-91
2022/03/21 05:36:41;;;;;;;22.67;13.95;;;;;;;5.09;53.12;101915.31;4952944;29;20093;-91
2022/03/21 05:39:08;;;;;;;19.83;13.48;;;;;;;5.26;53.29;101948.56;4949631;29;20043;-92
2022/03/21 05:41:35;;;;;;;22.75;14.77;;;;;;;5.10;53.12;101917.94;4949598;29;20054;-91
2022/03/21 05:44:17;;;;;;;19.92;13.63;;;;;;;5.03;52.71;101894.31;4945525;29;20043;-92
2022/03/21 05:46:46;;;;;;;19.63;13.45;;;;;;;5.15;51.81;101924.06;4931758;29;20627;-91
2022/03/21 05:49:17;;;;;;;;;;;;;;;5.41;50.97;101957.31;4951708;29;20142;-91
2022/03/21 05:51:46;;;;;;;21.75;13.27;;;;;;;5.27;51.77;101926.69;4940787;29;20397;-92
2022/03/21 05:54:13;;;;;;;22.95;13.63;;;;;;;5.44;51.91;101965.19;4945402;29;20059;-92
2022/03/21 05:56:42;;;;;;;21.13;13.88;;;;;;;5.07;51.48;101891.66;4936973;29;20055;-91
2022/03/21 06:01:58;;;;;;;21.42;13.65;;;;;;;5.49;51.38;101969.56;4944268;28;20154;-91
2022/03/21 06:04:29;;;;;;;22.13;14.07;;;;;;;5.38;50.99;101941.53;4942921;29;20047;-92
2022/03/21 06:06:57;;;;;;;21.20;14.25;;;;;;;5.51;51.88;101969.56;4932311;29;20106;-92
2022/03/21 06:09:31;;;;;;;24.38;14.65;;;;;;;5.54;51.06;101966.91;4948594;28;20479;-90
2022/03/21 06:11:58;;;;;;;21.10;14.13;;;;;;;5.53;50.96;101973.94;4954005;28;20051;-91
2022/03/21 06:14:26;;;;;;;22.45;14.13;;;;;;;5.42;51.13;101927.53;4927878;29;20044;-92
2022/03/21 06:16:54;;;;;;;23.58;14.30;;;;;;;5.40;52.28;101926.66;4953636;28;20762;-91
2022/03/21 06:19:27;;;;;;;21.83;14.25;;;;;;;5.49;52.08;101950.31;4954223;28;20047;-92
2022/03/21 06:22:01;;;;;;;20.77;14.88;;;;;;;5.22;52.59;101922.28;4932391;29;20463;-92
2022/03/21 06:24:28;;;;;;;24.02;14.70;;;;;;;5.25;52.89;101924.94;4948192;29;20479;-91
2022/03/21 06:26:59;;;;;;;21.05;13.93;;;;;;;5.62;52.39;101976.56;4935963;28;20058;-94
2022/03/21 06:29:33;;;;;;;23.67;14.65;;;;;;;5.78;51.12;101989.69;4948220;28;20106;-93
2022/03/21 06:32:18;;;;;;;20.58;14.38;;;;;;;5.73;51.04;101958.13;4936431;29;20142;-95
2022/03/21 06:34:57;;;;;;;;;;;;;;;6.01;49.38;101981.75;4938756;29;20333;-94
2022/03/21 06:37:47;;;;;;;20.25;12.85;;;;;;;5.76;49.90;101933.59;4944936;29;19947;-94
2022/03/21 06:40:49;;;;;;;20.73;13.43;;;;;;;5.89;48.84;101948.50;4937746;29;20067;-96
2022/03/21 06:43:24;;;;;;;22.02;13.65;;;;;;;6.27;48.35;101990.44;4953539;28;20103;-95
2022/03/21 06:46:06;;;;;;;20.48;13.15;;;;;;;6.25;47.65;101976.41;4949272;29;20057;-94
2022/03/21 06:48:47;;;;;;;22.40;13.30;;;;;;;6.18;46.95;101943.13;4961838;28;20070;-95
2022/03/21 06:51:35;;;;;;;20.77;13.20;;;;;;;6.25;46.23;101943.09;4945460;29;20058;-95
2022/03/21 06:54:28;;;;;;;20.67;13.88;;;;;;;6.47;46.31;101967.53;4956147;29;20103;-95
2022/03/21 06:57:06;;;;;;;21.55;13.80;;;;;;;6.40;46.29;101950.03;4937639;29;20054;-96
2022/03/21 06:59:46;;;;;;;22.50;13.57;;;;;;;6.47;46.86;101946.47;4934530;29;20115;-96
2022/03/21 07:02:36;;;;;;;23.95;14.02;;;;;;;6.90;46.21;102007.66;4954816;29;20063;-95
2022/03/21 07:05:09;;;;;;;17.90;13.35;;;;;;;6.64;45.14;101959.53;4947710;29;20051;-94
2022/03/21 07:07:38;;;;;;;18.95;13.48;;;;;;;6.67;45.17;101960.41;4926813;29;20043;-94
2022/03/21 07:10:08;;;;;;;21.40;13.32;;;;;;;7.06;46.68;102023.38;4953935;29;20142;-94
2022/03/21 07:12:41;;;;;;;22.52;14.15;;;;;;;6.78;44.77;101965.59;4951388;28;20046;-94
2022/03/21 07:15:23;;;;;;;21.27;13.57;;;;;;;6.95;46.55;101984.78;4950175;29;20106;-95
2022/03/21 07:17:56;;;;;;;20.80;13.82;;;;;;;7.00;44.19;101976.88;4955900;29;20094;-93
2022/03/21 07:20:35;;;;;;;;;;;;;;;;;;;;;
2022/03/21 07:23:05;;;;;;;21.13;13.55;;;;;;;7.21;45.12;101966.19;4955508;29;20053;-94
2022/03/21 07:25:48;;;;;;;21.40;13.63;;;;;;;7.33;43.77;101966.06;4955593;29;20051;-94
2022/03/21 07:28:25;;;;;;;22.75;13.82;;;;;;;7.64;45.74;102000.06;4952108;29;20039;-95
2022/03/21 07:31:19;;;;;;;19.95;13.65;;;;;;;7.51;42.79;101977.34;4940946;29;20055;-95
2022/03/21 07:33:46;;;;;;;21.25;13.98;;;;;;;7.72;42.99;101993.81;4955930;29;20565;-92
2022/03/21 07:36:23;;;;;;;21.17;13.60;;;;;;;7.81;43.84;101999.91;4956458;29;20435;-93
2022/03/21 07:39:13;;;;;;;;;;;;;;;;;;;;;
2022/03/21 07:42:04;;;;;;;19.70;13.55;;;;;;;8.24;42.90;102031.97;4943568;29;20102;-95
2022/03/21 07:47:37;;;;;;;22.20;14.15;;;;;;;8.24;41.75;101981.81;4946940;29;20044;-93
2022/03/21 07:50:26;;;;;;;21.13;14.25;;;;;;;8.68;40.81;102020.88;4882799;29;20080;-94
2022/03/21 07:53:10;;;;;;;25.60;13.65;;;;;;;8.63;42.24;101997.19;4880098;29;20136;-92
2022/03/21 07:55:47;;;;;;;21.58;13.85;;;;;;;8.78;41.16;101988.19;4884764;29;20078;-93
2022/03/21 07:58:26;;;;;;;27.05;14.05;;;;;;;9.05;39.89;102026.53;4886807;29;20052;-93
2022/03/21 08:00:58;;;;;;;21.17;13.88;;;;;;;8.86;40.24;101977.50;4892458;29;20057;-93
2022/03/21 08:03:31;;;;;;;20.67;14.55;;;;;;;9.21;39.96;102028.06;4893509;29;20079;-94
2022/03/21 08:05:59;;;;;;;19.42;13.77;;;;;;;9.35;39.46;102035.78;4888657;29;20048;-93
2022/03/21 08:08:29;;;;;;;19.23;13.90;;;;;;;9.23;38.95;102015.69;4897096;29;20037;-94
2022/03/21 08:10:56;;;;;;;19.17;13.68;;;;;;;9.08;39.03;101979.81;4891059;29;20071;-93
2022/03/21 08:13:26;;;;;;;19.35;13.27;;;;;;;9.28;39.10;102013.88;4885559;29;20101;-94
2022/03/21 08:16:08;;;;;;;20.10;14.57;;;;;;;9.33;39.92;102009.34;4947287;29;20102;-93
2022/03/21 08:18:39;;;;;;;19.48;14.32;;;;;;;9.43;39.56;101991.59;4966145;29;20487;-92
2022/03/21 08:21:15;;;;;;;27.42;13.90;;;;;;;9.95;39.12;102044.44;4958148;28;20051;-93
2022/03/21 08:24:03;;;;;;;24.25;13.82;;;;;;;9.68;38.25;101987.59;4955393;28;20130;-93
2022/03/21 08:26:31;;;;;;;21.35;14.13;;;;;;;9.91;39.62;102016.31;4959583;29;20059;-92
2022/03/21 08:29:14;;;;;;;18.95;13.50;;;;;;;10.19;38.53;102065.19;4954034;29;20090;-92
2022/03/21 08:31:48;;;;;;;20.15;13.30;;;;;;;10.07;38.06;102023.03;4956889;28;20069;-92
2022/03/21 08:34:18;;;;;;;21.23;13.48;;;;;;;10.23;38.04;102041.31;4951502;29;20066;-93
2022/03/21 08:36:45;;;;;;;18.70;13.27;;;;;;;10.04;38.06;102001.94;4947414;29;20403;-93
2022/03/21 08:39:14;;;;;;;20.38;13.57;;;;;;;10.54;37.52;102042.47;4957011;29;20047;-92
2022/03/21 08:41:41;;;;;;;21.10;13.35;;;;;;;10.36;36.97;102000.47;4951037;29;20051;-93
2022/03/21 08:44:11;;;;;;;22.55;14.07;;;;;;;10.42;36.95;101992.38;4954383;29;20542;-93
2022/03/21 08:46:38;;;;;;;21.27;12.93;;;;;;;10.56;36.63;102000.88;4954286;29;20048;-92
2022/03/21 08:49:33;;;;;;;22.65;13.98;;;;;;;10.57;36.19;101992.03;4952835;29;20132;-93
2022/03/21 08:52:07;;;;;;;20.13;14.07;;;;;;;10.88;36.00;102053.19;4955766;29;20047;-93
2022/03/21 08:54:47;;;;;;;;;;;;;;;;;;;;;
2022/03/21 08:57:17;;;;;;;19.88;14.18;;;;;;;10.69;35.74;102002.41;4949483;29;20051;-93
2022/03/21 08:59:45;;;;;;;22.83;14.30;;;;;;;10.69;35.43;101994.44;4952687;29;20056;-92
2022/03/21 09:02:17;;;;;;;20.88;13.25;;;;;;;10.92;35.86;102004.50;4955177;29;20067;-92
2022/03/21 09:04:48;;;;;;;20.17;13.50;;;;;;;11.59;35.55;102054.16;4949827;29;20043;-93
2022/03/21 09:07:20;;;;;;;20.65;13.82;;;;;;;12.16;34.20;102042.97;4953741;29;20509;-94
2022/03/21 09:09:51;;;;;;;18.98;13.30;;;;;;;12.21;33.64;101995.91;4954146;29;20551;-93
2022/03/21 09:12:23;;;;;;;19.38;13.93;;;;;;;12.78;32.96;102012.84;4953105;29;20138;-93
2022/03/21 09:14:57;;;;;;;19.13;14.18;;;;;;;13.47;31.51;102047.03;4955113;29;20063;-93
2022/03/21 09:17:40;;;;;;;19.10;13.52;;;;;;;13.75;30.97;102017.69;4967123;29;20067;-92
2022/03/21 09:20:13;;;;;;;18.73;14.25;;;;;;;14.07;30.03;102013.91;4955791;29;20039;-92
2022/03/21 09:22:42;;;;;;;18.77;13.65;;;;;;;14.32;30.29;102009.41;4962013;29;20062;-94
2022/03/21 09:25:09;;;;;;;18.10;13.32;;;;;;;14.63;29.87;101981.66;4956745;29;20043;-94
2022/03/21 09:27:40;;;;;;;21.10;14.23;;;;;;;14.87;29.02;101991.34;4953395;29;20459;-93
2022/03/21 09:30:11;;;;;;;19.00;13.23;;;;;;;15.27;28.86;102001.28;4954695;29;20058;-94
2022/03/21 09:32:39;;;;;;;18.17;13.70;;;;;;;15.72;28.38;102003.00;4944147;29;20055;-93
2022/03/21 09:35:12;;;;;;;19.60;14.32;;;;;;;15.91;27.53;101977.22;4946750;28;20522;-94
2022/03/21 09:37:44;;;;;;;20.80;14.40;;;;;;;16.13;27.13;101991.38;4949044;29;20086;-94
2022/03/21 09:40:44;;;;;;;19.50;13.80;;;;;;;16.44;27.12;102030.06;4923436;29;20077;-93
2022/03/21 09:43:25;;;;;;;17.85;13.77;;;;;;;16.59;26.93;101996.41;4947956;28;20083;-94
2022/03/21 09:45:58;;;;;;;18.30;13.98;;;;;;;17.10;26.69;102022.53;4950362;29;20055;-93
2022/03/21 09:48:37;;;;;;;;;;;;;;;;;;;;;
2022/03/21 09:51:28;;;;;;;20.75;14.65;;;;;;;17.07;25.57;101987.91;4947488;29;20047;-93
2022/03/21 09:54:03;;;;;;;17.33;14.00;;;;;;;16.83;26.10;101958.72;4948978;29;20055;-94
2022/03/21 09:56:36;;;;;;;17.50;13.75;;;;;;;17.00;25.68;101973.09;4947150;29;20047;-94
2022/03/21 09:59:03;;;;;;;18.35;14.10;;;;;;;17.12;25.44;101961.78;4951430;29;20054;-94
2022/03/21 10:01:35;;;;;;;17.67;13.43;;;;;;;17.80;25.59;101962.78;4950415;29;20051;-93
2022/03/21 10:04:08;;;;;;;20.85;13.63;;;;;;;18.51;24.44;102004.53;4936736;29;20044;-93
2022/03/21 10:06:49;;;;;;;21.73;14.88;;;;;;;18.60;24.41;101972.78;4948980;29;20115;-93
2022/03/21 10:09:19;;;;;;;18.93;14.50;;;;;;;19.01;24.14;101981.22;4953743;29;20051;-93
2022/03/21 10:11:57;;;;;;;17.60;14.15;;;;;;;19.27;22.94;101945.66;4956061;29;20491;-94
2022/03/21 10:14:34;;;;;;;16.92;13.38;;;;;;;19.96;22.45;102005.13;4952715;29;20516;-93
2022/03/21 10:17:09;;;;;;;18.77;13.93;;;;;;;19.61;23.00;101976.81;4959969;29;20486;-93
2022/03/21 10:19:53;;;;;;;20.10;14.38;;;;;;;19.83;22.19;101979.91;4959335;29;20059;-93
2022/03/21 10:22:44;;;;;;;17.48;14.52;;;;;;;20.20;22.00;101956.13;4956026;29;20082;-93
2022/03/21 10:25:35;;;;;;;17.52;13.80;;;;;;;20.46;21.82;101998.44;4938665;29;20051;-94
2022/03/21 10:28:32;;;;;;;20.30;14.68;;;;;;;19.81;21.71;101935.28;4937072;29;20051;-93
2022/03/21 10:31:02;;;;;;;16.90;15.10;;;;;;;20.16;21.36;101933.06;4926741;29;20138;-93
2022/03/21 10:33:41;;;;;;;18.17;14.30;;;;;;;19.76;22.44;101978.56;4954936;29;20089;-93
2022/03/21 10:36:17;;;;;;;18.08;13.52;;;;;;;19.95;22.66;101954.13;4948682;29;20563;-93
2022/03/21 10:39:10;;;;;;;19.27;14.35;;;;;;;20.85;21.23;101984.28;4950197;29;20052;-93
2022/03/21 10:42:02;;;;;;;18.70;14.27;;;;;;;20.91;20.92;101939.94;4947802;29;20106;-93
2022/03/21 10:45:05;;;;;;;;;;;;;;;;;;;;;
2022/03/21 10:47:55;;;;;;;18.95;14.70;;;;;;;20.96;20.64;101964.72;4949383;29;20058;-92
2022/03/21 10:50:54;;;;;;;;;;;;;;;;;;;;;
2022/03/21 10:53:42;;;;;;;18.15;15.32;;;;;;;20.22;22.06;101973.06;4945568;29;20052;-94
2022/03/21 10:57:03;;;;;;;20.45;14.55;;;;;;;20.73;21.27;101924.97;4925343;29;20048;-93
2022/03/21 11:00:05;;;;;;;17.25;14.25;;;;;;;21.59;21.15;101959.56;4951507;29;20090;-93
2022/03/21 11:03:01;;;;;;;18.15;14.98;;;;;;;22.31;20.11;101984.25;4949951;29;20050;-94
2022/03/21 11:06:05;;;;;;;16.00;13.57;;;;;;;23.21;19.38;101938.00;4931667;29;20055;-94
2022/03/21 11:08:47;;;;;;;18.52;13.98;;;;;;;23.81;18.76;101926.16;4954167;29;20047;-93
2022/03/21 11:11:35;;;;;;;;;;;;;;;;;;;;;
2022/03/21 11:14:30;;;;;;;20.55;15.68;;;;;;;22.90;19.60;101941.28;4907495;29;20051;-93
2022/03/21 11:17:55;;;;;;;;;;;;;;;;;;;;;
2022/03/21 11:20:53;;;;;;;;;;;;;;;;;;;;;
2022/03/21 11:23:36;;;;;;;17.25;15.23;;;;;;;23.87;18.32;101941.06;4948469;29;20051;-93
2022/03/21 11:26:21;;;;;;;;;;;;;;;;;;;;;
2022/03/21 11:29:37;;;;;;;18.27;14.50;;;;;;;24.12;18.20;101898.38;4953018;28;20059;-95
2022/03/21 11:32:29;;;;;;;18.73;15.85;;;;;;;24.13;17.69;101894.69;4918850;29;20115;-94
2022/03/21 11:35:34;;;;;;;16.00;14.30;;;;;;;24.44;17.98;101952.69;4947917;29;20078;-92
2022/03/21 11:38:30;;;;;;;15.73;14.02;;;;;;;24.84;18.19;101952.16;4947516;29;20158;-94
2022/03/21 11:41:31;;;;;;;15.88;13.48;;;;;;;25.48;17.45;101920.53;4952932;29;20410;-94
2022/03/21 11:44:05;;;;;;;17.13;14.95;;;;;;;25.75;16.79;101946.28;4951020;29;20047;-93
2022/03/21 11:46:47;;;;;;;16.35;14.52;;;;;;;24.68;17.43;101901.09;4947200;29;20058;-93
2022/03/21 11:49:28;;;;;;;19.27;15.65;;;;;;;24.56;17.22;101915.63;4947245;29;20074;-93
2022/03/21 11:52:05;;;;;;;15.77;13.98;;;;;;;24.91;17.72;101882.91;4955427;29;20102;-93
2022/03/21 11:54:36;;;;;;;16.75;14.63;;;;;;;25.75;16.76;101920.00;4933972;29;20090;-96
2022/03/21 12:21:24;;;;;;;;;;;;;;;;;;;;;
2022/03/21 12:41:59;;;;;;;;;;;;;;;;;;;;;
2022/03/21 12:45:54;;;;;;;;;;;;;;;;;;;;;
2022/03/21 12:49:32;;;;;;;;;;;;;;;;;;;;;
2022/03/21 12:52:45;;;;;;;19.52;15.35;;;;;;;26.50;16.53;101872.63;4931824;29;20100;-96
2022/03/21 12:55:50;;;;;;;;;;;;;;;;;;;;;
2022/03/21 12:59:10;;;;;;;20.10;15.88;;;;;;;25.92;16.73;101812.69;4939149;29;20047;-96
2022/03/21 13:13:32;;;;;;;;;;;;;;;;;;;;;
2022/03/21 13:16:49;;;;;;;21.02;16.73;;;;;;;28.02;15.21;101811.94;4864330;29;20113;-96
2022/03/21 13:21:02;;;;;;;20.85;16.42;;;;;;;28.16;15.13;101810.59;4876426;29;20045;-96
2022/03/21 13:24:08;;;;;;;20.13;15.93;;;;;;;28.65;14.39;101825.63;5327256;23;21502;-96
2022/03/21 13:27:03;;;;;;;18.98;16.75;;;;;;;26.82;15.47;101790.88;4964531;28;20039;-96
2022/03/21 14:01:22;;;;;;;22.23;16.50;;;;;;;21.87;20.57;101779.69;4897431;29;20071;-94
2022/03/21 14:04:26;;;;;;;21.30;15.95;;;;;;;21.63;21.23;101779.59;4903863;29;20063;-95